Time;durP1;ratioP1;P1;durP2;ratioP2;P2;SDS_P1;SDS_P2;PMS_P1;PMS_P2;Temp;Humidity;BMP_temperature;BMP_pressure;BME280_temperature;BME280_humidity;BME280_pressure;Samples;Min_cycle;Max_cycle;Signal;HPM_P1;HPM_P2
2023/06/28 00:01:11;;;;;;;2.35;1.58;;;;;;;;;;5049121;28;20047;-68
2023/06/28 00:03:36;;;;;;;2.78;1.58;;;;;;;;;;5038959;28;20083;-67
2023/06/28 00:06:02;;;;;;;4.85;2.03;;;;;;;;;;5034968;28;20034;-68
2023/06/28 00:08:28;;;;;;;3.28;1.67;;;;;;;;;;5031265;28;20037;-68
2023/06/28 00:10:53;;;;;;;9.43;1.58;;;;;;;;;;5035302;28;20454;-67
2023/06/28 00:13:19;;;;;;;5.80;2.00;;;;;;;;;;5041405;28;20112;-67
2023/06/28 00:15:45;;;;;;;2.42;1.55;;;;;;;;;;5041896;28;20048;-68
2023/06/28 00:18:11;;;;;;;3.88;1.65;;;;;;;;;;5037163;28;20039;-67
2023/06/28 00:20:36;;;;;;;4.95;1.90;;;;;;;;;;5049105;28;20075;-67
2023/06/28 00:23:03;;;;;;;5.20;1.95;;;;;;;;;;5020968;28;20024;-67
2023/06/28 00:25:28;;;;;;;5.03;1.63;;;;;;;;;;5051559;28;20102;-68
2023/06/28 00:27:54;;;;;;;2.13;1.65;;;;;;;;;;5051222;28;20021;-67
2023/06/28 00:30:19;;;;;;;4.53;2.00;;;;;;;;;;5029916;28;20026;-67
2023/06/28 00:32:45;;;;;;;6.28;1.88;;;;;;;;;;5026076;28;20108;-69
2023/06/28 00:35:10;;;;;;;4.63;1.67;;;;;;;;;;5053888;28;20040;-68
2023/06/28 00:37:35;;;;;;;3.88;1.90;;;;;;;;;;5050827;28;20390;-69
2023/06/28 00:40:03;;;;;;;3.80;2.03;;;;;;;;;;5050386;28;20037;-67
2023/06/28 00:42:28;;;;;;;3.17;1.88;;;;;;;;;;5038531;28;20025;-67
2023/06/28 00:44:54;;;;;;;2.80;1.75;;;;;;;;;;5017424;28;20036;-68
2023/06/28 00:47:21;;;;;;;2.33;1.75;;;;;;;;;;5047448;28;20458;-68
2023/06/28 00:49:49;;;;;;;2.97;1.40;;;;;;;;;;5044564;28;20079;-70
2023/06/28 00:52:14;;;;;;;2.75;1.50;;;;;;;;;;5049638;28;20048;-69
2023/06/28 00:54:40;;;;;;;2.40;1.75;;;;;;;;;;5041888;28;20024;-67
2023/06/28 00:57:07;;;;;;;6.03;1.85;;;;;;;;;;5044624;28;20037;-69
2023/06/28 00:59:35;;;;;;;2.45;1.48;;;;;;;;;;5054978;28;20489;-69
2023/06/28 01:02:01;;;;;;;5.25;1.80;;;;;;;;;;5054887;28;20056;-69
2023/06/28 01:04:26;;;;;;;3.92;1.65;;;;;;;;;;5019897;28;20040;-69
2023/06/28 01:06:54;;;;;;;3.47;2.20;;;;;;;;;;5018386;28;20048;-68
2023/06/28 01:09:22;;;;;;;5.30;2.33;;;;;;;;;;5052426;28;20111;-68
2023/06/28 01:11:50;;;;;;;5.57;1.90;;;;;;;;;;5037971;28;20077;-68
2023/06/28 01:14:16;;;;;;;3.95;1.90;;;;;;;;;;5051563;28;20028;-67
2023/06/28 01:16:42;;;;;;;4.45;1.85;;;;;;;;;;5024059;28;20498;-68
2023/06/28 01:19:13;;;;;;;3.17;2.00;;;;;;;;;;5054035;28;20390;-67
2023/06/28 01:21:41;;;;;;;4.22;1.52;;;;;;;;;;5057363;28;20137;-68
2023/06/28 01:24:10;;;;;;;3.72;1.90;;;;;;;;;;5056733;28;20032;-68
2023/06/28 01:26:37;;;;;;;2.67;1.77;;;;;;;;;;5054824;28;20037;-68
2023/06/28 01:29:04;;;;;;;7.75;1.60;;;;;;;;;;5039787;28;20091;-67
2023/06/28 01:31:30;;;;;;;2.20;1.77;;;;;;;;;;5039644;28;20041;-68
2023/06/28 01:33:56;;;;;;;2.83;1.77;;;;;;;;;;5041215;28;20527;-67
2023/06/28 01:36:21;;;;;;;4.40;1.73;;;;;;;;;;5052451;28;20041;-68
2023/06/28 01:38:47;;;;;;;2.38;1.70;;;;;;;;;;5027495;28;20059;-67
2023/06/28 01:41:14;;;;;;;2.90;1.60;;;;;;;;;;5055193;28;20119;-67
2023/06/28 01:43:40;;;;;;;5.07;1.75;;;;;;;;;;5041278;28;20506;-67
2023/06/28 01:46:05;;;;;;;2.55;1.85;;;;;;;;;;5058743;28;20296;-67
2023/06/28 01:48:31;;;;;;;4.57;1.83;;;;;;;;;;5058328;28;20455;-68
2023/06/28 01:50:57;;;;;;;9.55;1.77;;;;;;;;;;5057614;28;20053;-67
2023/06/28 01:53:23;;;;;;;5.45;1.98;;;;;;;;;;5057154;28;20112;-68
2023/06/28 01:55:48;;;;;;;7.50;2.13;;;;;;;;;;5052306;28;20098;-68
2023/06/28 01:58:14;;;;;;;4.15;2.03;;;;;;;;;;5042832;28;20029;-68
2023/06/28 02:00:39;;;;;;;7.30;2.08;;;;;;;;;;5042742;28;20033;-68
2023/06/28 02:03:04;;;;;;;3.60;1.67;;;;;;;;;;5054690;28;20031;-68
2023/06/28 02:05:30;;;;;;;2.58;1.73;;;;;;;;;;5039699;28;20076;-67
2023/06/28 02:07:56;;;;;;;4.80;1.80;;;;;;;;;;5055807;28;20497;-68
2023/06/28 02:10:23;;;;;;;7.78;2.03;;;;;;;;;;5051249;28;20763;-67
2023/06/28 02:12:49;;;;;;;5.18;2.00;;;;;;;;;;5047924;28;20029;-67
2023/06/28 02:15:14;;;;;;;6.95;1.80;;;;;;;;;;5056894;28;20513;-67
2023/06/28 02:17:40;;;;;;;4.15;1.90;;;;;;;;;;5056576;28;20032;-67
2023/06/28 02:20:08;;;;;;;7.25;2.22;;;;;;;;;;5049003;28;20060;-68
2023/06/28 02:22:34;;;;;;;4.28;1.80;;;;;;;;;;5042328;28;20030;-67
2023/06/28 02:25:00;;;;;;;5.28;2.05;;;;;;;;;;5048449;28;20025;-67
2023/06/28 02:27:25;;;;;;;4.20;1.83;;;;;;;;;;5018397;28;20025;-68
2023/06/28 02:29:51;;;;;;;2.58;1.92;;;;;;;;;;5030499;28;20037;-67
2023/06/28 02:32:16;;;;;;;2.72;1.90;;;;;;;;;;5056126;28;20078;-67
2023/06/28 02:34:42;;;;;;;1.92;1.65;;;;;;;;;;5038296;28;20020;-68
2023/06/28 02:37:07;;;;;;;6.32;1.92;;;;;;;;;;5054572;28;20044;-68
2023/06/28 02:39:33;;;;;;;3.45;1.80;;;;;;;;;;5043132;28;20027;-67
2023/06/28 02:41:58;;;;;;;6.38;2.17;;;;;;;;;;5038347;28;20039;-67
2023/06/28 02:44:24;;;;;;;2.20;1.98;;;;;;;;;;5047738;28;20024;-67
2023/06/28 02:46:49;;;;;;;2.70;1.80;;;;;;;;;;5028987;28;20123;-68
2023/06/28 02:49:15;;;;;;;2.95;1.92;;;;;;;;;;5034676;28;20430;-67
2023/06/28 02:51:40;;;;;;;2.58;1.70;;;;;;;;;;5051936;28;20053;-67
2023/06/28 02:54:05;;;;;;;2.40;1.80;;;;;;;;;;5040372;28;20482;-67
2023/06/28 02:56:31;;;;;;;5.70;1.85;;;;;;;;;;5051721;28;20072;-68
2023/06/28 02:58:56;;;;;;;2.17;1.70;;;;;;;;;;5057635;28;20035;-67
2023/06/28 03:01:22;;;;;;;4.68;1.98;;;;;;;;;;5039913;28;20041;-68
2023/06/28 03:03:48;;;;;;;2.90;2.05;;;;;;;;;;5052233;28;20032;-67
2023/06/28 03:06:17;;;;;;;5.22;2.20;;;;;;;;;;5020491;28;20118;-67
2023/06/28 03:08:42;;;;;;;8.20;2.00;;;;;;;;;;5039395;28;20051;-67
2023/06/28 03:11:08;;;;;;;5.45;1.58;;;;;;;;;;5054121;28;20041;-67
2023/06/28 03:13:33;;;;;;;5.75;2.10;;;;;;;;;;5036726;28;20056;-67
2023/06/28 03:15:59;;;;;;;15.00;2.55;;;;;;;;;;5021737;28;20051;-68
2023/06/28 03:18:25;;;;;;;2.78;1.77;;;;;;;;;;5038540;28;20021;-67
2023/06/28 03:20:50;;;;;;;9.50;2.03;;;;;;;;;;5037083;28;20056;-67
2023/06/28 03:23:16;;;;;;;5.63;2.03;;;;;;;;;;5036971;28;20526;-68
2023/06/28 03:25:41;;;;;;;3.22;1.80;;;;;;;;;;5004528;28;20052;-68
2023/06/28 03:28:07;;;;;;;6.00;1.73;;;;;;;;;;5041722;28;20143;-69
2023/06/28 03:30:33;;;;;;;3.92;1.98;;;;;;;;;;5018303;28;20127;-67
2023/06/28 03:32:58;;;;;;;9.18;2.10;;;;;;;;;;5037384;28;20163;-68
2023/06/28 03:35:24;;;;;;;3.78;1.77;;;;;;;;;;5039111;28;20052;-68
2023/06/28 03:37:53;;;;;;;4.38;1.77;;;;;;;;;;5040086;28;20116;-68
2023/06/28 03:40:20;;;;;;;5.50;1.60;;;;;;;;;;5025094;28;20131;-68
2023/06/28 03:42:45;;;;;;;3.30;1.98;;;;;;;;;;5023477;28;20052;-68
2023/06/28 03:45:11;;;;;;;2.97;1.98;;;;;;;;;;5051572;28;20652;-68
2023/06/28 03:47:36;;;;;;;9.35;1.98;;;;;;;;;;5039599;28;20056;-68
2023/06/28 03:50:02;;;;;;;4.53;1.73;;;;;;;;;;5035796;28;20688;-68
2023/06/28 03:52:28;;;;;;;4.13;1.77;;;;;;;;;;5038580;28;20476;-68
2023/06/28 03:54:54;;;;;;;2.88;1.95;;;;;;;;;;5022658;28;20120;-68
2023/06/28 03:57:21;;;;;;;4.82;1.70;;;;;;;;;;5042564;28;20108;-68
2023/06/28 03:59:47;;;;;;;2.55;1.48;;;;;;;;;;5046007;28;20029;-68
2023/06/28 04:02:12;;;;;;;2.60;1.90;;;;;;;;;;5035829;28;20768;-69
2023/06/28 04:04:38;;;;;;;6.88;1.90;;;;;;;;;;5023269;28;20033;-68
2023/06/28 04:07:03;;;;;;;2.95;1.42;;;;;;;;;;5053729;28;20039;-68
2023/06/28 04:09:29;;;;;;;7.35;2.22;;;;;;;;;;5054731;28;20033;-67
2023/06/28 04:11:55;;;;;;;3.63;1.90;;;;;;;;;;5022869;28;20040;-67
2023/06/28 04:14:23;;;;;;;8.23;2.00;;;;;;;;;;5021182;28;20029;-68
2023/06/28 04:16:48;;;;;;;4.85;1.75;;;;;;;;;;5044421;28;20049;-67
2023/06/28 04:19:14;;;;;;;4.90;2.05;;;;;;;;;;5054890;28;20075;-69
2023/06/28 04:21:39;;;;;;;7.10;2.10;;;;;;;;;;5040411;28;20041;-68
2023/06/28 04:24:05;;;;;;;5.70;2.10;;;;;;;;;;5035443;28;20079;-68
2023/06/28 04:26:31;;;;;;;4.00;1.60;;;;;;;;;;5040586;28;20083;-68
2023/06/28 04:28:56;;;;;;;2.70;1.90;;;;;;;;;;5002471;28;20541;-68
2023/06/28 04:31:22;;;;;;;5.40;1.95;;;;;;;;;;5033700;28;20139;-67
2023/06/28 04:33:47;;;;;;;10.65;3.10;;;;;;;;;;5043239;28;20058;-67
2023/06/28 04:36:13;;;;;;;9.45;1.88;;;;;;;;;;5029451;28;20118;-67
2023/06/28 04:38:39;;;;;;;8.40;2.63;;;;;;;;;;5053589;28;20618;-68
2023/06/28 04:41:04;;;;;;;4.60;2.00;;;;;;;;;;5044347;28;20055;-67
2023/06/28 04:43:40;;;;;;;6.20;1.83;;;;;;;;;;5046888;28;20098;-67
2023/06/28 04:46:05;;;;;;;1.70;1.60;;;;;;;;;;5047378;28;20045;-68
2023/06/28 04:48:31;;;;;;;5.97;1.70;;;;;;;;;;5022780;28;20028;-68
2023/06/28 04:50:56;;;;;;;6.05;2.35;;;;;;;;;;5041698;28;20043;-68
2023/06/28 04:53:22;;;;;;;8.93;3.38;;;;;;;;;;5041823;28;20454;-68
2023/06/28 04:55:47;;;;;;;8.63;1.80;;;;;;;;;;5041624;28;20195;-68
2023/06/28 04:58:13;;;;;;;3.63;1.70;;;;;;;;;;5028360;28;20041;-67
2023/06/28 05:00:39;;;;;;;4.65;2.08;;;;;;;;;;5034574;28;20072;-68
2023/06/28 05:03:05;;;;;;;2.47;1.60;;;;;;;;;;5058221;28;20506;-67
2023/06/28 05:05:30;;;;;;;3.60;2.05;;;;;;;;;;5030788;28;20044;-68
2023/06/28 05:07:56;;;;;;;6.15;1.92;;;;;;;;;;5043684;28;20056;-68
2023/06/28 05:10:23;;;;;;;3.75;1.95;;;;;;;;;;5060273;28;20044;-69
2023/06/28 05:12:51;;;;;;;10.07;1.88;;;;;;;;;;5041034;28;20055;-68
2023/06/28 05:15:18;;;;;;;2.45;1.85;;;;;;;;;;5052827;28;20029;-69
2023/06/28 05:17:43;;;;;;;4.72;1.77;;;;;;;;;;5051944;28;20021;-69
2023/06/28 05:20:09;;;;;;;9.45;2.38;;;;;;;;;;5043785;28;20045;-69
2023/06/28 05:22:40;;;;;;;9.30;1.73;;;;;;;;;;5032782;28;20029;-69
2023/06/28 05:25:06;;;;;;;3.17;1.87;;;;;;;;;;5063262;28;20059;-69
2023/06/28 05:27:31;;;;;;;5.72;1.80;;;;;;;;;;5038602;28;20057;-70
2023/06/28 05:29:57;;;;;;;3.30;2.03;;;;;;;;;;5044338;28;20020;-69
2023/06/28 05:32:22;;;;;;;2.80;1.60;;;;;;;;;;5022359;28;20448;-69
2023/06/28 05:34:48;;;;;;;9.23;2.10;;;;;;;;;;5056878;28;20025;-69
2023/06/28 05:37:13;;;;;;;7.03;2.05;;;;;;;;;;5047959;28;20056;-69
2023/06/28 05:39:38;;;;;;;9.05;2.00;;;;;;;;;;5021977;28;20677;-70
2023/06/28 05:42:04;;;;;;;8.63;1.90;;;;;;;;;;5037550;28;20597;-70
2023/06/28 05:44:29;;;;;;;10.55;2.10;;;;;;;;;;5047295;28;20028;-70
2023/06/28 05:46:55;;;;;;;6.28;2.08;;;;;;;;;;5025202;28;20041;-70
2023/06/28 05:49:20;;;;;;;5.78;2.42;;;;;;;;;;5037681;28;20033;-70
2023/06/28 05:51:46;;;;;;;4.30;2.20;;;;;;;;;;5049986;28;20068;-71
2023/06/28 05:54:12;;;;;;;3.90;1.70;;;;;;;;;;5026214;28;20029;-70
2023/06/28 05:56:37;;;;;;;6.05;2.05;;;;;;;;;;5059749;28;20041;-69
2023/06/28 05:59:02;;;;;;;5.70;2.00;;;;;;;;;;5053233;28;20052;-70
2023/06/28 06:01:28;;;;;;;9.63;2.20;;;;;;;;;;5032877;28;20045;-69
2023/06/28 06:03:54;;;;;;;6.70;2.10;;;;;;;;;;5042345;28;20021;-70
2023/06/28 06:06:19;;;;;;;4.68;2.03;;;;;;;;;;5040459;28;20041;-69
2023/06/28 06:08:44;;;;;;;3.15;2.00;;;;;;;;;;5020232;28;20029;-69
2023/06/28 06:11:10;;;;;;;6.50;2.05;;;;;;;;;;5038980;28;20091;-70
2023/06/28 06:13:35;;;;;;;23.65;2.30;;;;;;;;;;5053333;28;20025;-70
2023/06/28 06:16:01;;;;;;;5.90;2.13;;;;;;;;;;5036009;28;20529;-70
2023/06/28 06:18:26;;;;;;;4.43;2.08;;;;;;;;;;5038691;28;20112;-70
2023/06/28 06:20:52;;;;;;;10.80;2.35;;;;;;;;;;5043146;28;20036;-70
2023/06/28 06:23:18;;;;;;;18.77;2.42;;;;;;;;;;5023682;28;20371;-70
2023/06/28 06:25:44;;;;;;;6.75;2.22;;;;;;;;;;5050007;28;20112;-70
2023/06/28 06:28:09;;;;;;;3.63;1.80;;;;;;;;;;5054955;28;20052;-70
2023/06/28 06:30:35;;;;;;;5.85;2.13;;;;;;;;;;5035775;28;20124;-70
2023/06/28 06:33:01;;;;;;;4.95;1.98;;;;;;;;;;5048424;28;20463;-71
2023/06/28 06:35:27;;;;;;;10.10;2.65;;;;;;;;;;5036669;28;20044;-70
2023/06/28 06:37:53;;;;;;;4.70;2.03;;;;;;;;;;5048996;28;20391;-68
2023/06/28 06:40:18;;;;;;;4.70;1.90;;;;;;;;;;5037921;28;20029;-70
2023/06/28 06:42:45;;;;;;;8.85;2.22;;;;;;;;;;5045114;28;20083;-69
2023/06/28 06:45:16;;;;;;;7.68;2.10;;;;;;;;;;5051187;28;20091;-69
2023/06/28 06:47:44;;;;;;;8.02;1.80;;;;;;;;;;5038548;28;20031;-69
2023/06/28 06:50:10;;;;;;;5.25;2.22;;;;;;;;;;5039017;28;20044;-69
2023/06/28 06:52:37;;;;;;;4.00;2.00;;;;;;;;;;5035173;28;20106;-70
2023/06/28 06:55:04;;;;;;;3.53;2.10;;;;;;;;;;5023010;28;20681;-69
2023/06/28 06:57:30;;;;;;;4.20;2.25;;;;;;;;;;5039747;28;20117;-69
2023/06/28 06:59:55;;;;;;;10.55;2.00;;;;;;;;;;5023291;28;20048;-69
2023/06/28 07:02:21;;;;;;;8.13;1.95;;;;;;;;;;5042233;28;20033;-70
2023/06/28 07:04:47;;;;;;;6.38;2.20;;;;;;;;;;5054068;28;20124;-69
2023/06/28 07:07:13;;;;;;;5.13;2.53;;;;;;;;;;5054127;28;20048;-69
2023/06/28 07:09:38;;;;;;;8.80;2.17;;;;;;;;;;5037651;28;20116;-69
2023/06/28 07:12:04;;;;;;;5.90;2.53;;;;;;;;;;5037601;28;20052;-68
2023/06/28 07:14:30;;;;;;;6.00;2.33;;;;;;;;;;5049750;28;20025;-68
2023/06/28 07:16:55;;;;;;;9.63;2.60;;;;;;;;;;5034465;28;20560;-68
2023/06/28 07:19:20;;;;;;;8.38;2.15;;;;;;;;;;5050919;28;20031;-68
2023/06/28 07:21:46;;;;;;;6.95;2.45;;;;;;;;;;5037864;28;20494;-67
2023/06/28 07:24:11;;;;;;;14.45;2.53;;;;;;;;;;5037052;28;20397;-67
2023/06/28 07:26:37;;;;;;;4.63;2.00;;;;;;;;;;5051587;28;20147;-68
2023/06/28 07:29:02;;;;;;;13.48;2.78;;;;;;;;;;5017973;28;20025;-68
2023/06/28 07:31:28;;;;;;;10.68;2.67;;;;;;;;;;5063541;28;20040;-68
2023/06/28 07:33:53;;;;;;;11.25;2.47;;;;;;;;;;5034301;28;20021;-68
2023/06/28 07:36:19;;;;;;;4.95;2.67;;;;;;;;;;5048734;28;20039;-68
2023/06/28 07:38:44;;;;;;;6.70;2.47;;;;;;;;;;5054060;28;20020;-69
2023/06/28 07:41:10;;;;;;;15.38;3.50;;;;;;;;;;5042285;28;20090;-68
2023/06/28 07:43:35;;;;;;;8.82;2.42;;;;;;;;;;5054420;28;20029;-68
2023/06/28 07:46:03;;;;;;;6.80;3.08;;;;;;;;;;5038803;28;20045;-67
2023/06/28 07:48:28;;;;;;;5.25;2.10;;;;;;;;;;5040856;28;20036;-68
2023/06/28 07:50:55;;;;;;;6.32;2.20;;;;;;;;;;5050989;28;20033;-68
2023/06/28 07:53:21;;;;;;;11.45;2.60;;;;;;;;;;5037664;28;20111;-68
2023/06/28 07:55:46;;;;;;;4.10;2.15;;;;;;;;;;5053110;28;20067;-68
2023/06/28 07:58:12;;;;;;;4.47;2.60;;;;;;;;;;5035844;28;20552;-69
2023/06/28 08:00:37;;;;;;;9.52;2.80;;;;;;;;;;5053113;28;20044;-68
2023/06/28 08:03:03;;;;;;;6.03;2.72;;;;;;;;;;5053200;28;20531;-69
2023/06/28 08:05:29;;;;;;;6.70;2.58;;;;;;;;;;5027395;28;20037;-68
2023/06/28 08:07:55;;;;;;;10.10;2.75;;;;;;;;;;5018983;28;20032;-69
2023/06/28 08:10:21;;;;;;;9.05;2.50;;;;;;;;;;5055261;28;20037;-69
2023/06/28 08:12:47;;;;;;;6.35;2.85;;;;;;;;;;5053573;28;20032;-69
2023/06/28 08:15:12;;;;;;;8.55;2.55;;;;;;;;;;5049554;28;20107;-68
2023/06/28 08:17:38;;;;;;;10.15;2.90;;;;;;;;;;5055162;28;20547;-69
2023/06/28 08:20:04;;;;;;;7.40;2.63;;;;;;;;;;5033919;28;20426;-69
2023/06/28 08:22:29;;;;;;;7.15;2.80;;;;;;;;;;5045735;28;20029;-68
2023/06/28 08:24:55;;;;;;;7.78;2.80;;;;;;;;;;5018054;28;20032;-69
2023/06/28 08:27:20;;;;;;;5.30;2.58;;;;;;;;;;5042081;28;20056;-68
2023/06/28 08:29:45;;;;;;;8.05;2.97;;;;;;;;;;5025624;28;20032;-69
2023/06/28 08:32:11;;;;;;;5.82;2.80;;;;;;;;;;5018302;28;20132;-68
2023/06/28 08:34:36;;;;;;;6.18;2.78;;;;;;;;;;5020462;28;20471;-68
2023/06/28 08:37:03;;;;;;;5.40;3.00;;;;;;;;;;5017764;28;20067;-68
2023/06/28 08:39:29;;;;;;;8.88;2.92;;;;;;;;;;5040945;28;20037;-69
2023/06/28 08:41:55;;;;;;;4.50;2.47;;;;;;;;;;5036672;28;20044;-68
2023/06/28 08:44:25;;;;;;;4.18;2.58;;;;;;;;;;5036734;28;20052;-69
2023/06/28 08:46:51;;;;;;;8.85;2.80;;;;;;;;;;5057891;28;20044;-68
2023/06/28 08:49:18;;;;;;;9.30;3.20;;;;;;;;;;5045018;28;20029;-68
2023/06/28 08:51:44;;;;;;;8.00;3.50;;;;;;;;;;5037494;28;20029;-68
2023/06/28 08:54:12;;;;;;;12.93;3.38;;;;;;;;;;5024534;28;20025;-69
2023/06/28 08:56:38;;;;;;;7.05;3.45;;;;;;;;;;5053190;28;20043;-69
2023/06/28 08:59:04;;;;;;;5.05;2.97;;;;;;;;;;5007417;28;20600;-69
2023/06/28 09:01:31;;;;;;;9.77;3.53;;;;;;;;;;5033308;28;20033;-68
2023/06/28 09:03:57;;;;;;;4.72;3.25;;;;;;;;;;5034541;28;20030;-69
2023/06/28 09:06:22;;;;;;;7.63;4.38;;;;;;;;;;5029590;28;20057;-68
2023/06/28 09:08:48;;;;;;;6.63;3.42;;;;;;;;;;5043601;28;20619;-68
2023/06/28 09:11:16;;;;;;;16.23;4.22;;;;;;;;;;5024404;28;20088;-68
2023/06/28 09:13:43;;;;;;;7.78;3.60;;;;;;;;;;5050359;28;20436;-68
2023/06/28 09:16:09;;;;;;;10.15;3.78;;;;;;;;;;5052781;28;20049;-69
2023/06/28 09:18:35;;;;;;;4.68;3.70;;;;;;;;;;5040010;28;20028;-68
2023/06/28 09:21:02;;;;;;;13.15;3.65;;;;;;;;;;5049535;28;20056;-68
2023/06/28 09:23:30;;;;;;;7.85;3.63;;;;;;;;;;5027384;28;20033;-68
2023/06/28 09:25:56;;;;;;;9.40;3.35;;;;;;;;;;5052782;28;20043;-68
2023/06/28 09:28:42;;;;;;;7.22;3.58;;;;;;;;;;5051293;28;20032;-68
2023/06/28 09:31:08;;;;;;;9.70;3.92;;;;;;;;;;5051365;28;21165;-68
2023/06/28 09:33:34;;;;;;;11.00;4.13;;;;;;;;;;5054970;28;20029;-67
2023/06/28 09:36:02;;;;;;;9.88;4.47;;;;;;;;;;5042959;28;20040;-68
2023/06/28 09:38:27;;;;;;;6.53;4.18;;;;;;;;;;5051479;28;20528;-68
2023/06/28 09:41:11;;;;;;;8.52;4.53;;;;;;;;;;5030071;28;20033;-67
2023/06/28 09:43:37;;;;;;;6.18;4.28;;;;;;;;;;5056605;28;20021;-67
2023/06/28 09:46:13;;;;;;;8.88;4.40;;;;;;;;;;5055185;28;20052;-67
2023/06/28 09:48:51;;;;;;;9.55;4.07;;;;;;;;;;5041107;28;20033;-67
2023/06/28 09:51:17;;;;;;;8.15;4.15;;;;;;;;;;5057973;28;20045;-67
2023/06/28 09:53:53;;;;;;;5.38;4.03;;;;;;;;;;5056024;28;20023;-68
2023/06/28 09:56:38;;;;;;;9.98;4.13;;;;;;;;;;5041076;28;20075;-66
2023/06/28 09:59:06;;;;;;;9.30;4.35;;;;;;;;;;5046932;28;20045;-67
2023/06/28 10:01:35;;;;;;;8.13;5.30;;;;;;;;;;5025038;28;20590;-68
2023/06/28 10:04:01;;;;;;;8.70;4.63;;;;;;;;;;5039333;28;20091;-68
2023/06/28 10:06:27;;;;;;;4.97;4.05;;;;;;;;;;5040062;28;20040;-67
2023/06/28 10:08:53;;;;;;;6.28;4.68;;;;;;;;;;5056964;28;20052;-67
2023/06/28 10:11:21;;;;;;;9.15;5.22;;;;;;;;;;5056526;28;20049;-68
2023/06/28 10:13:48;;;;;;;8.63;4.72;;;;;;;;;;5039294;28;20021;-67
2023/06/28 10:16:17;;;;;;;11.20;4.82;;;;;;;;;;5042072;28;20123;-67
2023/06/28 10:18:43;;;;;;;11.52;4.72;;;;;;;;;;5042899;28;20034;-68
2023/06/28 10:21:09;;;;;;;8.10;5.00;;;;;;;;;;5051013;28;20099;-68
2023/06/28 10:23:38;;;;;;;9.25;5.30;;;;;;;;;;5042506;28;20036;-68
2023/06/28 10:26:04;;;;;;;14.63;5.30;;;;;;;;;;5019652;28;20072;-68
2023/06/28 10:28:34;;;;;;;7.75;4.88;;;;;;;;;;5056169;28;20051;-68
2023/06/28 10:31:02;;;;;;;7.45;5.45;;;;;;;;;;5026239;28;20033;-68
2023/06/28 10:33:33;;;;;;;6.72;5.45;;;;;;;;;;5056712;28;20038;-68
2023/06/28 10:36:02;;;;;;;7.18;5.45;;;;;;;;;;5054166;28;20037;-68
2023/06/28 10:38:31;;;;;;;8.85;6.07;;;;;;;;;;5055027;28;20067;-68
2023/06/28 10:40:56;;;;;;;6.25;4.65;;;;;;;;;;5019225;28;20545;-68
2023/06/28 10:43:23;;;;;;;9.43;4.95;;;;;;;;;;5055644;28;20436;-69
2023/06/28 10:45:50;;;;;;;7.45;5.05;;;;;;;;;;5036667;28;20091;-68
2023/06/28 10:48:23;;;;;;;13.50;5.35;;;;;;;;;;5037139;28;20426;-68
2023/06/28 10:50:50;;;;;;;11.95;6.70;;;;;;;;;;5052888;28;20044;-67
2023/06/28 10:53:25;;;;;;;18.17;14.02;;;;;;;;;;5053091;28;20036;-68
2023/06/28 10:56:11;;;;;;;19.83;7.72;;;;;;;;;;5049402;28;20477;-68
2023/06/28 10:58:39;;;;;;;18.15;9.98;;;;;;;;;;5050185;28;20048;-68
2023/06/28 11:01:08;;;;;;;12.15;6.82;;;;;;;;;;5053835;28;20056;-68
2023/06/28 11:03:44;;;;;;;8.73;5.60;;;;;;;;;;5045909;28;20048;-68
2023/06/28 11:06:12;;;;;;;7.13;5.38;;;;;;;;;;5048054;28;20041;-67
2023/06/28 11:08:48;;;;;;;11.85;5.50;;;;;;;;;;5042672;28;20505;-68
2023/06/28 11:11:35;;;;;;;10.23;4.68;;;;;;;;;;5053991;28;20100;-68
2023/06/28 11:14:16;;;;;;;14.27;5.72;;;;;;;;;;5055266;28;20398;-68
2023/06/28 11:16:42;;;;;;;11.65;4.47;;;;;;;;;;5047721;28;20469;-67
2023/06/28 11:19:13;;;;;;;7.65;4.88;;;;;;;;;;5016987;28;20106;-69
2023/06/28 11:21:40;;;;;;;8.38;4.65;;;;;;;;;;5054439;28;20053;-68
2023/06/28 11:24:06;;;;;;;10.35;5.45;;;;;;;;;;5020761;28;21470;-68
2023/06/28 11:26:33;;;;;;;9.00;5.65;;;;;;;;;;5042987;28;20099;-67
2023/06/28 11:28:59;;;;;;;12.30;6.10;;;;;;;;;;5050627;28;20040;-68
2023/06/28 11:31:37;;;;;;;13.43;5.25;;;;;;;;;;5040841;28;20072;-66
2023/06/28 11:34:02;;;;;;;6.95;5.35;;;;;;;;;;5037083;28;20120;-68
2023/06/28 11:36:28;;;;;;;7.65;4.88;;;;;;;;;;5051292;28;20069;-68
2023/06/28 11:38:54;;;;;;;8.02;4.07;;;;;;;;;;5035822;28;20037;-68
2023/06/28 11:41:19;;;;;;;7.53;4.95;;;;;;;;;;5039499;28;20094;-68
2023/06/28 11:43:46;;;;;;;6.20;4.72;;;;;;;;;;5035871;28;20044;-67
2023/06/28 11:46:17;;;;;;;6.55;4.50;;;;;;;;;;5047876;28;20499;-67
2023/06/28 11:48:43;;;;;;;8.73;5.07;;;;;;;;;;5053577;28;20047;-66
2023/06/28 11:51:09;;;;;;;8.65;4.97;;;;;;;;;;5016885;28;20042;-66
2023/06/28 11:53:34;;;;;;;12.48;5.20;;;;;;;;;;5045797;28;20051;-67
2023/06/28 11:55:59;;;;;;;9.00;4.95;;;;;;;;;;5020047;28;20033;-66
2023/06/28 11:58:36;;;;;;;8.20;5.20;;;;;;;;;;5039721;28;20025;-65
2023/06/28 12:01:05;;;;;;;6.82;4.90;;;;;;;;;;5054409;28;20033;-67
2023/06/28 12:03:38;;;;;;;7.50;5.35;;;;;;;;;;5035632;28;20060;-66
2023/06/28 12:06:06;;;;;;;7.90;5.13;;;;;;;;;;5031653;28;20045;-67
2023/06/28 12:08:33;;;;;;;10.07;5.22;;;;;;;;;;5050520;28;20536;-67
2023/06/28 12:11:00;;;;;;;11.43;5.32;;;;;;;;;;5054821;28;20078;-66
2023/06/28 12:13:27;;;;;;;12.73;5.80;;;;;;;;;;5039408;28;20060;-66
2023/06/28 12:15:54;;;;;;;7.40;5.32;;;;;;;;;;5030700;28;20045;-67
2023/06/28 12:18:19;;;;;;;7.65;5.72;;;;;;;;;;5037865;28;20374;-67
2023/06/28 12:20:45;;;;;;;5.95;5.35;;;;;;;;;;5037726;28;20048;-66
2023/06/28 12:23:12;;;;;;;8.23;5.38;;;;;;;;;;5041136;28;20039;-66
2023/06/28 12:25:44;;;;;;;13.35;5.50;;;;;;;;;;5016893;28;20044;-67
2023/06/28 12:28:14;;;;;;;6.95;5.22;;;;;;;;;;5038901;28;20035;-67
2023/06/28 12:30:40;;;;;;;11.25;5.47;;;;;;;;;;5053481;28;20124;-67
2023/06/28 12:33:07;;;;;;;7.82;5.45;;;;;;;;;;5054635;28;20044;-68
2023/06/28 12:35:33;;;;;;;10.52;5.97;;;;;;;;;;5023389;28;20033;-67
2023/06/28 12:38:04;;;;;;;7.90;5.68;;;;;;;;;;5048778;28;20386;-67
2023/06/28 12:40:32;;;;;;;9.77;5.95;;;;;;;;;;5047406;28;20033;-68
2023/06/28 12:43:14;;;;;;;10.45;5.93;;;;;;;;;;5052159;28;20021;-68
2023/06/28 12:45:49;;;;;;;10.20;6.10;;;;;;;;;;5038636;28;20037;-68
2023/06/28 12:48:16;;;;;;;13.65;5.82;;;;;;;;;;5047723;28;20056;-68
2023/06/28 12:50:46;;;;;;;9.73;6.07;;;;;;;;;;5052235;28;20055;-69
2023/06/28 12:53:11;;;;;;;10.60;5.38;;;;;;;;;;5051901;28;20029;-68
2023/06/28 12:55:38;;;;;;;8.88;6.22;;;;;;;;;;5053399;28;20441;-67
2023/06/28 12:58:03;;;;;;;7.30;5.80;;;;;;;;;;5052739;28;20064;-69
2023/06/28 13:00:28;;;;;;;9.05;6.05;;;;;;;;;;5038988;28;20442;-67
2023/06/28 13:02:54;;;;;;;6.97;6.22;;;;;;;;;;5033469;28;20044;-68
2023/06/28 13:05:21;;;;;;;11.00;5.63;;;;;;;;;;5014868;28;20578;-67
2023/06/28 13:07:47;;;;;;;9.07;5.82;;;;;;;;;;5033956;28;20033;-68
2023/06/28 13:10:12;;;;;;;8.05;5.82;;;;;;;;;;5017830;28;20043;-68
2023/06/28 13:12:38;;;;;;;8.30;5.55;;;;;;;;;;5055258;28;20060;-67
2023/06/28 13:15:04;;;;;;;10.88;6.38;;;;;;;;;;5048936;28;20374;-67
2023/06/28 13:17:30;;;;;;;6.45;5.68;;;;;;;;;;5029026;28;20464;-67
2023/06/28 13:19:55;;;;;;;9.63;5.38;;;;;;;;;;5020322;28;20018;-67
2023/06/28 13:22:21;;;;;;;9.07;5.85;;;;;;;;;;5036777;28;20374;-68
2023/06/28 13:24:46;;;;;;;5.68;4.95;;;;;;;;;;5025001;28;20080;-69
2023/06/28 13:27:11;;;;;;;8.15;5.15;;;;;;;;;;5052350;28;20121;-67
2023/06/28 13:29:37;;;;;;;11.23;5.65;;;;;;;;;;5044465;28;20057;-68
2023/06/28 13:32:02;;;;;;;9.48;4.78;;;;;;;;;;5038380;28;20120;-68
2023/06/28 13:34:28;;;;;;;16.08;5.45;;;;;;;;;;5052440;28;20067;-68
2023/06/28 13:36:53;;;;;;;7.28;5.32;;;;;;;;;;5038335;28;20195;-68
2023/06/28 13:39:19;;;;;;;6.28;4.80;;;;;;;;;;5036624;28;20032;-67
2023/06/28 13:41:44;;;;;;;8.00;4.95;;;;;;;;;;5053259;28;20532;-69
2023/06/28 13:44:10;;;;;;;8.05;5.22;;;;;;;;;;5044985;28;20113;-67
2023/06/28 13:46:36;;;;;;;12.23;5.00;;;;;;;;;;5050642;28;20041;-67
2023/06/28 13:49:01;;;;;;;5.32;4.82;;;;;;;;;;5037914;28;20030;-68
2023/06/28 13:51:27;;;;;;;6.15;4.85;;;;;;;;;;5056838;28;20033;-67
2023/06/28 13:53:54;;;;;;;9.00;4.93;;;;;;;;;;5058566;28;20025;-67
2023/06/28 13:56:19;;;;;;;7.20;5.13;;;;;;;;;;5057936;28;20049;-68
2023/06/28 13:58:45;;;;;;;8.20;5.43;;;;;;;;;;5055747;28;20032;-68
2023/06/28 14:01:10;;;;;;;12.27;5.50;;;;;;;;;;5039041;28;20502;-67
2023/06/28 14:03:35;;;;;;;15.18;5.65;;;;;;;;;;5056449;28;20029;-68
2023/06/28 14:06:01;;;;;;;10.02;5.55;;;;;;;;;;5039499;28;20048;-68
2023/06/28 14:08:27;;;;;;;11.00;5.32;;;;;;;;;;5037822;28;20017;-67
2023/06/28 14:10:52;;;;;;;10.00;5.95;;;;;;;;;;5055225;28;20119;-67
2023/06/28 14:13:18;;;;;;;9.32;5.32;;;;;;;;;;5052174;28;20474;-68
2023/06/28 14:15:45;;;;;;;6.60;5.82;;;;;;;;;;5054849;28;20083;-67
2023/06/28 14:18:11;;;;;;;8.10;5.60;;;;;;;;;;5060233;28;20036;-68
2023/06/28 14:20:36;;;;;;;7.18;5.22;;;;;;;;;;5008437;28;20037;-67
2023/06/28 14:23:02;;;;;;;9.85;6.10;;;;;;;;;;5029804;28;20560;-67
2023/06/28 14:25:28;;;;;;;10.85;6.47;;;;;;;;;;5036576;28;20046;-67
2023/06/28 14:27:53;;;;;;;9.30;6.20;;;;;;;;;;4997629;28;20021;-66
2023/06/28 14:30:19;;;;;;;12.02;6.00;;;;;;;;;;5042640;28;20482;-68
2023/06/28 14:32:46;;;;;;;9.70;6.07;;;;;;;;;;5021621;28;20378;-67
2023/06/28 14:35:13;;;;;;;6.15;5.32;;;;;;;;;;5038494;28;20039;-68
2023/06/28 14:37:39;;;;;;;10.20;5.72;;;;;;;;;;5025438;28;20273;-69